Leetonia, Minnesota
Current Conditions -  °F | °C
As of 12:53 PM on Friday 24 Oct 2014 (Local Time) from KHIB Reporting Station
Clear Clear  
Wind Chill: 65°   Ceiling: Unl
Heat Index: 65°   Visibility: 10mi
Dew Point: 46°   Wind: 12mph
Humidity: 50%   Direction: 220°SW
Pressure: 29.79"   Gusts: NA
Location:  47.4158°N, 93.0053°W
Report Text: KHIB 241753Z AUTO 22010KT 10SM CLR 18/08 A2979 RMK AO2 SLP095 T01830078 10189 20039 58010
Loading
Personal Weather Stations






























Interactive Weather Map
Tropical Storm Tracking
New forecast layout! Learn more

10-Day Weather Forecast

Advertisements
Track Severe Weather on mobile